createdAt,value
2022-10-05T00:00:00.731Z,10.70
2022-10-05T00:02:33.373Z,10.97
2022-10-05T00:05:02.006Z,10.90
2022-10-05T00:07:31.663Z,10.50
2022-10-05T00:10:01.313Z,10.23
2022-10-05T00:12:30.639Z,10.60
2022-10-05T00:15:02.502Z,10.30
2022-10-05T00:17:32.122Z,10.67
2022-10-05T00:20:01.249Z,10.37
2022-10-05T00:22:34.395Z,10.47
2022-10-05T00:25:13.308Z,10.60
2022-10-05T00:27:42.404Z,10.80
2022-10-05T00:30:17.269Z,10.73
2022-10-05T00:32:46.327Z,10.60
2022-10-05T00:35:17.172Z,10.33
2022-10-05T00:37:46.981Z,10.23
2022-10-05T00:40:31.813Z,10.43
2022-10-05T00:43:19.721Z,10.00
2022-10-05T00:45:54.366Z,10.43
2022-10-05T00:48:37.201Z,10.80
2022-10-05T00:51:25.731Z,10.40
2022-10-05T00:54:18.644Z,10.10
2022-10-05T00:57:19.586Z,10.30
2022-10-05T01:00:05.415Z,10.30
2022-10-05T01:02:51.802Z,11.00
2022-10-05T01:05:40.217Z,10.60
2022-10-05T01:08:23.717Z,10.87
2022-10-05T01:11:02.846Z,11.13
2022-10-05T01:13:42.611Z,10.97
2022-10-05T01:16:18.111Z,10.57
2022-10-05T01:18:56.777Z,10.60
2022-10-05T01:21:28.018Z,10.50
2022-10-05T01:24:39.140Z,10.43
2022-10-05T01:27:46.273Z,10.53
2022-10-05T01:30:17.442Z,10.73
2022-10-05T01:32:55.156Z,10.00
2022-10-05T01:35:38.997Z,10.83
2022-10-05T01:38:28.450Z,10.43
2022-10-05T01:41:09.353Z,10.73
2022-10-05T01:43:46.194Z,10.67
2022-10-05T01:46:25.494Z,10.80
2022-10-05T01:49:19.127Z,10.80
2022-10-05T01:52:01.345Z,10.70
2022-10-05T01:54:44.022Z,10.10
2022-10-05T01:57:22.995Z,10.20
2022-10-05T02:00:07.924Z,10.67
2022-10-05T02:02:47.564Z,10.57
2022-10-05T02:05:22.418Z,10.50
2022-10-05T02:07:57.224Z,10.70
2022-10-05T02:10:32.846Z,10.60
2022-10-05T02:13:08.199Z,10.87
2022-10-05T02:15:45.549Z,10.70
2022-10-05T02:18:22.517Z,10.63
2022-10-05T02:20:52.657Z,10.90
2022-10-05T02:23:26.368Z,10.53
2022-10-05T02:25:57.470Z,10.80
2022-10-05T02:28:34.869Z,10.77
2022-10-05T02:31:10.446Z,10.50
2022-10-05T02:33:39.331Z,10.63
2022-10-05T02:36:17.549Z,10.90
2022-10-05T02:39:10.271Z,10.50
2022-10-05T02:41:52.533Z,10.27
2022-10-05T02:44:30.319Z,10.57
2022-10-05T02:47:10.192Z,10.47
2022-10-05T02:49:46.920Z,10.73
2022-10-05T02:52:23.579Z,10.60
2022-10-05T02:55:02.973Z,10.80
2022-10-05T02:57:41.043Z,11.00
2022-10-05T03:00:15.070Z,11.57
2022-10-05T03:02:55.646Z,10.50
2022-10-05T03:05:30.840Z,10.83
2022-10-05T03:08:05.704Z,10.87
2022-10-05T03:10:41.156Z,11.00
2022-10-05T03:13:17.914Z,10.97
2022-10-05T03:16:22.539Z,10.50
2022-10-05T03:19:10.318Z,10.73
2022-10-05T03:21:57.601Z,10.93
2022-10-05T03:25:03.054Z,10.77
2022-10-05T03:27:42.311Z,10.37
2022-10-05T03:30:16.845Z,10.47
2022-10-05T03:32:59.837Z,11.17
2022-10-05T03:35:35.370Z,10.50
2022-10-05T03:38:14.377Z,10.73
2022-10-05T03:40:52.564Z,11.50
2022-10-05T03:43:59.916Z,10.97
2022-10-05T03:46:43.209Z,10.53
2022-10-05T03:49:22.452Z,12.20
2022-10-05T03:52:02.215Z,10.97
2022-10-05T03:54:36.529Z,10.90
2022-10-05T03:57:15.149Z,10.87
2022-10-05T04:00:05.779Z,11.30
2022-10-05T04:02:55.995Z,10.57
2022-10-05T04:05:29.780Z,10.73
2022-10-05T04:08:06.352Z,11.03
2022-10-05T04:10:42.909Z,10.93
2022-10-05T04:13:17.622Z,11.00
2022-10-05T04:15:57.315Z,11.83
2022-10-05T04:18:32.401Z,11.23
2022-10-05T04:21:06.776Z,11.37
2022-10-05T04:23:50.408Z,11.23
2022-10-05T04:26:28.654Z,10.60
2022-10-05T04:29:07.459Z,10.73
2022-10-05T04:32:07.115Z,11.70
2022-10-05T04:34:57.164Z,10.87
2022-10-05T04:37:35.583Z,11.47
2022-10-05T04:40:21.972Z,11.90
2022-10-05T04:43:15.381Z,10.60
2022-10-05T04:46:11.133Z,10.73
2022-10-05T04:49:31.907Z,10.93
2022-10-05T04:52:10.751Z,11.10
2022-10-05T04:54:56.939Z,11.37
2022-10-05T04:57:35.632Z,11.40
2022-10-05T05:00:26.507Z,10.57
2022-10-05T05:03:45.683Z,11.20
2022-10-05T05:06:31.872Z,12.33
2022-10-05T05:09:26.443Z,11.03
2022-10-05T05:12:10.645Z,11.80
2022-10-05T05:15:00.975Z,10.73
2022-10-05T05:17:51.674Z,10.60
2022-10-05T05:20:26.081Z,11.63
2022-10-05T05:23:04.401Z,11.70
2022-10-05T05:25:44.540Z,11.00
2022-10-05T05:28:26.162Z,11.33
2022-10-05T05:31:09.853Z,11.97
2022-10-05T05:33:50.891Z,11.60
2022-10-05T05:36:52.241Z,11.40
2022-10-05T05:39:28.438Z,11.53
2022-10-05T05:42:04.925Z,10.80
2022-10-05T05:44:41.162Z,29.97
2022-10-05T05:47:22.043Z,13.33
2022-10-05T05:50:11.400Z,13.53
2022-10-05T05:52:47.374Z,12.90
2022-10-05T05:55:24.386Z,12.33
2022-10-05T05:58:01.519Z,12.00
2022-10-05T06:00:36.089Z,12.10
2022-10-05T06:03:15.158Z,11.77
2022-10-05T06:05:49.632Z,11.97
2022-10-05T06:08:28.084Z,11.60
2022-10-05T06:11:09.656Z,11.90
2022-10-05T06:13:41.964Z,12.30
2022-10-05T06:16:19.802Z,11.37
2022-10-05T06:18:56.188Z,11.67
2022-10-05T06:21:33.260Z,11.27
2022-10-05T06:24:07.069Z,11.30
2022-10-05T06:27:18.343Z,11.73
2022-10-05T06:30:04.981Z,11.33
2022-10-05T06:32:48.444Z,11.57
2022-10-05T06:35:34.571Z,11.30
2022-10-05T06:38:20.651Z,11.67
2022-10-05T06:41:02.772Z,11.10
2022-10-05T06:43:56.147Z,11.67
2022-10-05T06:46:56.929Z,11.27
2022-10-05T06:49:54.175Z,11.03
2022-10-05T06:53:05.234Z,11.60
2022-10-05T06:55:46.149Z,10.87
2022-10-05T06:58:36.240Z,11.47
2022-10-05T07:01:10.721Z,11.53
2022-10-05T07:03:56.763Z,11.50
2022-10-05T07:06:30.577Z,11.23
2022-10-05T07:09:18.470Z,11.30
2022-10-05T07:12:22.533Z,11.90
2022-10-05T07:15:08.685Z,10.97
2022-10-05T07:17:53.723Z,11.10
2022-10-05T07:20:32.720Z,11.33
2022-10-05T07:23:22.034Z,10.87
2022-10-05T07:26:04.051Z,11.97
2022-10-05T07:28:45.126Z,11.47
2022-10-05T07:31:27.027Z,11.07
2022-10-05T07:34:05.472Z,10.90
2022-10-05T07:36:58.819Z,11.20
2022-10-05T07:39:59.199Z,11.20
2022-10-05T07:42:51.856Z,10.63
2022-10-05T07:45:30.936Z,10.93
2022-10-05T07:48:13.431Z,11.37
2022-10-05T07:50:57.567Z,10.90
2022-10-05T07:53:31.561Z,11.17
2022-10-05T07:56:06.312Z,11.00
2022-10-05T07:58:43.284Z,11.23
2022-10-05T08:01:19.317Z,10.53
2022-10-05T08:03:56.075Z,11.10
2022-10-05T08:06:50.462Z,10.57
2022-10-05T08:09:31.560Z,10.20
2022-10-05T08:12:19.811Z,11.40
2022-10-05T08:14:55.902Z,10.03
2022-10-05T08:17:45.526Z,10.43
2022-10-05T08:20:39.989Z,10.73
2022-10-05T08:23:21.333Z,11.33
2022-10-05T08:26:02.206Z,9.90
2022-10-05T08:28:38.216Z,10.70
2022-10-05T08:31:20.771Z,10.20
2022-10-05T08:34:02.067Z,10.73
2022-10-05T08:36:54.112Z,10.20
2022-10-05T08:39:25.400Z,11.40
2022-10-05T08:42:49.956Z,10.43
2022-10-05T08:45:56.499Z,13.10
2022-10-05T08:49:11.060Z,10.60
2022-10-05T08:52:17.162Z,10.20
2022-10-05T08:55:05.769Z,10.17
2022-10-05T08:58:11.683Z,10.13
2022-10-05T09:00:55.267Z,9.77
2022-10-05T09:03:49.172Z,10.10
2022-10-05T09:06:44.901Z,9.87
2022-10-05T09:10:02.120Z,9.50
2022-10-05T09:13:07.391Z,10.13
2022-10-05T09:16:29.331Z,9.90
2022-10-05T09:19:48.783Z,9.70
2022-10-05T09:22:25.099Z,9.83
2022-10-05T09:24:58.109Z,9.70
2022-10-05T09:27:38.400Z,9.67
2022-10-05T09:30:27.004Z,9.40
2022-10-05T09:33:41.089Z,9.60
2022-10-05T09:37:13.611Z,9.67
2022-10-05T09:40:26.199Z,9.47
2022-10-05T09:43:42.775Z,12.43
2022-10-05T09:47:01.936Z,9.30
2022-10-05T09:50:09.747Z,9.43
2022-10-05T09:52:59.755Z,9.30
2022-10-05T09:56:21.868Z,9.57
2022-10-05T09:59:42.255Z,9.50
2022-10-05T10:02:32.066Z,9.37
2022-10-05T10:05:31.420Z,9.43
2022-10-05T10:08:20.329Z,8.90
2022-10-05T10:11:35.481Z,9.30
2022-10-05T10:14:41.615Z,9.40
2022-10-05T10:17:33.892Z,9.20
2022-10-05T10:20:25.861Z,9.07
2022-10-05T10:23:33.746Z,9.23
2022-10-05T10:27:00.027Z,8.50
2022-10-05T10:29:54.906Z,9.10
2022-10-05T10:33:03.463Z,8.80
2022-10-05T10:35:37.971Z,8.90
2022-10-05T10:38:34.950Z,9.40
2022-10-05T10:41:47.793Z,8.90
2022-10-05T10:45:00.821Z,9.10
2022-10-05T10:48:03.641Z,8.87
2022-10-05T10:51:13.021Z,8.97
2022-10-05T10:54:28.735Z,9.77
2022-10-05T10:57:09.375Z,9.10
2022-10-05T11:00:19.928Z,8.90
2022-10-05T11:03:48.844Z,8.93
2022-10-05T11:06:45.439Z,10.83
2022-10-05T11:09:46.642Z,8.90
2022-10-05T11:12:58.127Z,9.87
2022-10-05T11:19:06.635Z,8.83
2022-10-05T11:21:47.877Z,8.80
2022-10-05T11:24:50.875Z,9.30
2022-10-05T11:27:49.715Z,9.10
2022-10-05T11:31:06.539Z,8.90
2022-10-05T11:34:08.014Z,9.10
2022-10-05T11:37:11.564Z,8.90
2022-10-05T11:39:46.212Z,9.03
2022-10-05T11:42:57.932Z,8.47
2022-10-05T11:45:48.364Z,8.87
2022-10-05T11:49:01.608Z,8.90
2022-10-05T11:51:39.856Z,9.13
2022-10-05T11:54:26.493Z,9.20
2022-10-05T11:57:02.023Z,8.90
2022-10-05T11:59:40.625Z,9.00
2022-10-05T12:02:56.609Z,8.87
2022-10-05T12:05:34.204Z,8.97
2022-10-05T12:08:20.626Z,8.90
2022-10-05T12:11:01.118Z,9.13
2022-10-05T12:13:41.321Z,9.07
2022-10-05T12:16:18.791Z,9.27
2022-10-05T12:18:59.996Z,8.80
2022-10-05T12:21:40.948Z,9.23
2022-10-05T12:24:17.563Z,9.00
2022-10-05T12:26:54.170Z,8.90
2022-10-05T12:29:29.167Z,8.60
2022-10-05T12:32:04.120Z,9.13
2022-10-05T12:34:48.738Z,9.10
2022-10-05T12:37:40.769Z,9.20
2022-10-05T12:40:26.553Z,9.17
2022-10-05T12:43:11.917Z,9.10
2022-10-05T12:45:56.535Z,8.80
2022-10-05T12:48:43.874Z,8.97
2022-10-05T12:51:23.154Z,9.20
2022-10-05T12:53:59.263Z,8.90
2022-10-05T12:56:44.322Z,9.00
2022-10-05T12:59:27.367Z,8.63
2022-10-05T13:02:05.664Z,8.80
2022-10-05T13:04:43.958Z,8.70
2022-10-05T13:07:33.560Z,9.10
2022-10-05T13:10:17.974Z,9.00
2022-10-05T13:12:55.715Z,9.40
2022-10-05T13:15:31.309Z,9.00
2022-10-05T13:18:18.186Z,9.20
2022-10-05T13:21:02.880Z,9.50
2022-10-05T13:23:47.281Z,9.00
2022-10-05T13:26:40.705Z,9.07
2022-10-05T13:29:19.575Z,8.93
2022-10-05T13:31:54.537Z,9.23
2022-10-05T13:34:36.396Z,8.90
2022-10-05T13:37:16.378Z,10.20
2022-10-05T13:40:14.681Z,8.87
2022-10-05T13:42:50.606Z,8.93
2022-10-05T13:45:23.178Z,9.03
2022-10-05T13:48:10.118Z,9.30
2022-10-05T13:50:46.619Z,8.73
2022-10-05T13:53:23.963Z,8.90
2022-10-05T13:56:01.343Z,9.10
2022-10-05T13:58:40.880Z,9.37
2022-10-05T14:01:17.838Z,9.10
2022-10-05T14:04:16.230Z,8.90
2022-10-05T14:06:47.175Z,9.00
2022-10-05T14:09:30.269Z,8.80
2022-10-05T14:12:16.115Z,9.30
2022-10-05T14:14:49.121Z,9.00
2022-10-05T14:17:36.320Z,9.10
2022-10-05T14:20:20.538Z,9.37
2022-10-05T14:22:56.507Z,9.03
2022-10-05T14:25:25.402Z,9.00
2022-10-05T14:28:02.575Z,8.97
2022-10-05T14:30:33.707Z,8.77
2022-10-05T14:33:17.092Z,10.03
2022-10-05T14:35:50.210Z,9.17
2022-10-05T14:38:25.781Z,9.20
2022-10-05T14:41:19.273Z,9.50
2022-10-05T14:43:53.681Z,9.00
2022-10-05T14:46:28.418Z,9.30
2022-10-05T14:49:21.116Z,9.57
2022-10-05T14:51:51.090Z,9.10
2022-10-05T14:54:33.703Z,9.00
2022-10-05T14:57:10.138Z,9.00
2022-10-05T15:00:00.362Z,9.10
2022-10-05T15:03:04.508Z,9.00
2022-10-05T15:05:40.399Z,9.07
2022-10-05T15:08:27.581Z,9.07
2022-10-05T15:11:04.723Z,9.20
2022-10-05T15:13:38.020Z,9.20
2022-10-05T15:16:16.168Z,8.67
2022-10-05T15:18:52.108Z,8.90
2022-10-05T15:21:54.714Z,9.33
2022-10-05T15:24:27.136Z,9.07
2022-10-05T15:27:00.574Z,9.13
2022-10-05T15:30:06.343Z,8.97
2022-10-05T15:32:58.301Z,9.13
2022-10-05T15:35:49.544Z,9.17
2022-10-05T15:38:25.643Z,9.13
2022-10-05T15:41:07.388Z,8.83
2022-10-05T15:43:53.584Z,9.20
2022-10-05T15:46:34.391Z,8.97
2022-10-05T15:49:18.282Z,9.10
2022-10-05T15:52:01.569Z,9.17
2022-10-05T15:55:10.656Z,9.20
2022-10-05T15:57:47.983Z,9.10
2022-10-05T16:00:19.444Z,9.07
2022-10-05T16:02:54.849Z,9.23
2022-10-05T16:05:58.740Z,9.40
2022-10-05T16:08:55.828Z,8.90
2022-10-05T16:11:40.531Z,9.00
2022-10-05T16:14:24.194Z,9.10
2022-10-05T16:17:18.440Z,9.20
2022-10-05T16:20:03.113Z,9.33
2022-10-05T16:22:43.655Z,8.90
2022-10-05T16:25:23.359Z,9.33
2022-10-05T16:28:13.079Z,9.20
2022-10-05T16:31:01.118Z,9.37
2022-10-05T16:33:48.061Z,9.30
2022-10-05T16:36:28.547Z,9.80
2022-10-05T16:39:05.075Z,9.20
2022-10-05T16:41:42.799Z,9.40
2022-10-05T16:44:24.613Z,9.33
2022-10-05T16:46:59.314Z,9.40
2022-10-05T16:49:40.027Z,9.10
2022-10-05T16:52:15.267Z,9.50
2022-10-05T16:54:48.377Z,9.43
2022-10-05T16:57:22.699Z,9.37
2022-10-05T17:00:17.452Z,9.40
2022-10-05T17:03:15.160Z,9.40
2022-10-05T17:06:26.043Z,10.00
2022-10-05T17:09:32.276Z,9.80
2022-10-05T17:12:17.844Z,9.47
2022-10-05T17:15:03.421Z,9.27
2022-10-05T17:17:49.290Z,9.80
2022-10-05T17:20:49.324Z,9.67
2022-10-05T17:23:45.095Z,9.80
2022-10-05T17:26:41.084Z,9.80
2022-10-05T17:29:18.300Z,9.90
2022-10-05T17:32:11.443Z,9.70
2022-10-05T17:34:41.278Z,9.77
2022-10-05T17:37:36.517Z,9.70
2022-10-05T17:40:35.317Z,9.53
2022-10-05T17:43:25.287Z,9.77
2022-10-05T17:46:00.581Z,9.70
2022-10-05T17:49:18.381Z,9.73
2022-10-05T17:52:21.421Z,10.00
2022-10-05T17:55:28.211Z,9.83
2022-10-05T17:58:01.672Z,9.80
2022-10-05T18:01:07.052Z,9.97
2022-10-05T18:03:42.676Z,10.20
2022-10-05T18:06:35.501Z,9.73
2022-10-05T18:09:39.484Z,9.63
2022-10-05T18:12:42.946Z,14.27
2022-10-05T18:15:48.843Z,10.60
2022-10-05T18:18:58.785Z,9.90
2022-10-05T18:21:37.837Z,13.20
2022-10-05T18:24:46.636Z,14.50
2022-10-05T18:27:47.723Z,17.50
2022-10-05T18:30:22.671Z,27.00
2022-10-05T18:33:48.016Z,30.53
2022-10-05T18:36:45.597Z,28.83
2022-10-05T18:39:30.263Z,19.27
2022-10-05T18:42:13.285Z,18.00
2022-10-05T18:44:46.539Z,15.13
2022-10-05T18:47:25.065Z,17.40
2022-10-05T18:50:17.614Z,16.97
2022-10-05T18:53:13.469Z,13.80
2022-10-05T18:55:46.927Z,12.83
2022-10-05T18:58:22.865Z,12.00
2022-10-05T19:01:08.275Z,11.60
2022-10-05T19:03:53.017Z,10.70
2022-10-05T19:06:28.603Z,11.03
2022-10-05T19:09:15.503Z,10.80
2022-10-05T19:11:53.291Z,10.40
2022-10-05T19:14:33.716Z,10.50
2022-10-05T19:17:24.043Z,10.30
2022-10-05T19:20:27.061Z,10.33
2022-10-05T19:23:18.925Z,10.10
2022-10-05T19:25:54.864Z,10.37
2022-10-05T19:28:31.177Z,10.57
2022-10-05T19:31:17.612Z,9.97
2022-10-05T19:34:07.657Z,10.50
2022-10-05T19:36:55.277Z,11.07
2022-10-05T19:39:36.087Z,10.10
2022-10-05T19:42:24.741Z,10.70
2022-10-05T19:45:08.873Z,9.93
2022-10-05T19:47:49.377Z,10.50
2022-10-05T19:50:27.742Z,10.70
2022-10-05T19:53:08.246Z,10.17
2022-10-05T19:55:41.722Z,10.27
2022-10-05T19:58:23.131Z,10.47
2022-10-05T20:01:00.669Z,10.63
2022-10-05T20:03:31.727Z,10.07
2022-10-05T20:06:02.476Z,10.63
2022-10-05T20:08:41.906Z,10.23
2022-10-05T20:11:13.513Z,10.53
2022-10-05T20:13:44.142Z,10.20
2022-10-05T20:16:45.598Z,10.07
2022-10-05T20:19:47.956Z,10.63
2022-10-05T20:22:32.888Z,10.03
2022-10-05T20:25:06.421Z,9.90
2022-10-05T20:27:47.608Z,10.60
2022-10-05T20:30:19.004Z,9.80
2022-10-05T20:32:49.774Z,10.10
2022-10-05T20:35:19.031Z,9.90
2022-10-05T20:37:49.865Z,10.40
2022-10-05T20:40:21.281Z,9.90
2022-10-05T20:42:50.372Z,10.77
2022-10-05T20:45:19.005Z,10.17
2022-10-05T20:47:47.691Z,11.10
2022-10-05T20:50:16.638Z,10.30
2022-10-05T20:52:45.256Z,10.23
2022-10-05T20:55:14.179Z,10.50
2022-10-05T20:57:46.105Z,10.30
2022-10-05T21:00:15.683Z,10.33
2022-10-05T21:02:44.221Z,10.07
2022-10-05T21:05:12.877Z,10.00
2022-10-05T21:07:41.580Z,10.10
2022-10-05T21:10:10.992Z,10.10
2022-10-05T21:12:39.497Z,10.60
2022-10-05T21:15:10.451Z,10.57
2022-10-05T21:17:40.031Z,9.93
2022-10-05T21:20:12.214Z,9.80
2022-10-05T21:22:41.324Z,10.13
2022-10-05T21:25:10.699Z,10.03
2022-10-05T21:27:39.208Z,10.10
2022-10-05T21:30:11.113Z,9.80
2022-10-05T21:32:44.054Z,10.00
2022-10-05T21:35:13.101Z,11.20
2022-10-05T21:37:41.712Z,10.10
2022-10-05T21:40:11.676Z,9.60
2022-10-05T21:42:40.475Z,10.00
2022-10-05T21:45:12.065Z,9.40
2022-10-05T21:47:40.933Z,9.90
2022-10-05T21:50:11.028Z,9.70
2022-10-05T21:52:39.665Z,10.00
2022-10-05T21:55:09.645Z,10.27
2022-10-05T21:57:39.272Z,9.77
2022-10-05T22:00:14.078Z,9.63
2022-10-05T22:02:42.631Z,9.60
2022-10-05T22:05:11.163Z,9.77
2022-10-05T22:07:39.725Z,9.97
2022-10-05T22:10:09.804Z,10.20
2022-10-05T22:12:38.518Z,9.83
2022-10-05T22:15:08.460Z,9.80
2022-10-05T22:17:38.985Z,9.83
2022-10-05T22:20:11.107Z,10.20
2022-10-05T22:22:39.712Z,9.70
2022-10-05T22:25:09.176Z,9.83
2022-10-05T22:27:37.947Z,9.93
2022-10-05T22:30:08.811Z,9.60
2022-10-05T22:32:38.782Z,9.73
2022-10-05T22:35:11.513Z,9.70
2022-10-05T22:37:40.495Z,9.97
2022-10-05T22:40:11.271Z,9.97
2022-10-05T22:42:41.962Z,9.60
2022-10-05T22:45:10.803Z,9.87
2022-10-05T22:47:42.351Z,9.93
2022-10-05T22:50:11.255Z,10.70
2022-10-05T22:52:39.764Z,10.17
2022-10-05T22:55:09.556Z,10.23
2022-10-05T22:57:41.947Z,10.80
2022-10-05T23:00:12.604Z,9.77
2022-10-05T23:02:45.171Z,9.50
2022-10-05T23:05:14.704Z,10.13
2022-10-05T23:07:46.683Z,9.87
2022-10-05T23:10:17.757Z,9.70
2022-10-05T23:12:58.354Z,9.37
2022-10-05T23:15:29.168Z,9.63
2022-10-05T23:17:59.222Z,10.03
2022-10-05T23:20:27.756Z,9.90
2022-10-05T23:22:56.275Z,9.97
2022-10-05T23:25:25.664Z,9.50
2022-10-05T23:27:54.293Z,10.30
2022-10-05T23:30:22.886Z,9.73
2022-10-05T23:32:51.506Z,9.97
2022-10-05T23:35:21.397Z,9.67
2022-10-05T23:37:49.912Z,9.70
2022-10-05T23:40:18.685Z,9.90
2022-10-05T23:42:47.355Z,9.90
2022-10-05T23:45:16.045Z,9.70
2022-10-05T23:47:44.749Z,9.67
2022-10-05T23:50:13.511Z,9.83
2022-10-05T23:52:43.393Z,9.57
2022-10-05T23:55:12.159Z,9.80
2022-10-05T23:57:40.671Z,9.40
